createdAt,value
2022-10-09T00:02:24.028Z,12.60
2022-10-09T00:04:53.162Z,12.60
2022-10-09T00:07:23.614Z,12.60
2022-10-09T00:09:52.693Z,12.70
2022-10-09T00:12:21.814Z,12.70
2022-10-09T00:14:50.943Z,12.70
2022-10-09T00:17:20.026Z,12.70
2022-10-09T00:19:49.026Z,12.70
2022-10-09T00:22:18.011Z,12.70
2022-10-09T00:24:48.665Z,12.70
2022-10-09T00:27:17.641Z,12.70
2022-10-09T00:29:46.689Z,12.70
2022-10-09T00:32:16.443Z,12.80
2022-10-09T00:34:45.485Z,12.80
2022-10-09T00:37:14.953Z,12.80
2022-10-09T00:39:44.054Z,12.80
2022-10-09T00:42:15.301Z,12.70
2022-10-09T00:44:57.955Z,12.70
2022-10-09T00:47:31.815Z,12.70
2022-10-09T00:50:06.044Z,12.60
2022-10-09T00:52:35.813Z,12.60
2022-10-09T00:55:06.111Z,12.60
2022-10-09T00:57:37.417Z,12.60
2022-10-09T01:00:10.921Z,12.50
2022-10-09T01:02:40.279Z,12.50
2022-10-09T01:05:11.205Z,12.40
2022-10-09T01:07:46.846Z,12.40
2022-10-09T01:10:26.963Z,12.40
2022-10-09T01:13:08.132Z,12.30
2022-10-09T01:15:45.808Z,12.20
2022-10-09T01:18:21.980Z,12.20
2022-10-09T01:20:55.177Z,12.20
2022-10-09T01:23:44.341Z,12.20
2022-10-09T01:26:34.245Z,12.20
2022-10-09T01:29:09.191Z,12.10
2022-10-09T01:31:43.203Z,12.10
2022-10-09T01:34:15.132Z,12.10
2022-10-09T01:36:45.779Z,12.10
2022-10-09T01:39:19.665Z,12.10
2022-10-09T01:41:51.702Z,12.00
2022-10-09T01:44:23.763Z,12.00
2022-10-09T01:46:53.247Z,12.00
2022-10-09T01:49:43.453Z,12.00
2022-10-09T01:52:29.687Z,11.90
2022-10-09T01:55:09.807Z,11.90
2022-10-09T01:57:45.017Z,11.90
2022-10-09T02:00:15.976Z,11.80
2022-10-09T02:02:46.675Z,11.80
2022-10-09T02:05:22.648Z,11.80
2022-10-09T02:07:51.848Z,11.80
2022-10-09T02:10:23.299Z,11.80
2022-10-09T02:12:57.597Z,11.70
2022-10-09T02:15:33.083Z,11.70
2022-10-09T02:18:06.783Z,11.70
2022-10-09T02:20:41.059Z,11.60
2022-10-09T02:23:11.788Z,11.50
2022-10-09T02:25:41.053Z,11.40
2022-10-09T02:28:10.934Z,11.40
2022-10-09T02:30:50.082Z,11.40
2022-10-09T02:33:19.229Z,11.30
2022-10-09T02:35:48.630Z,11.30
2022-10-09T02:38:17.793Z,11.20
2022-10-09T02:40:46.707Z,11.20
2022-10-09T02:43:15.730Z,11.10
2022-10-09T02:45:46.150Z,11.10
2022-10-09T02:48:15.149Z,11.00
2022-10-09T02:50:44.209Z,11.00
2022-10-09T02:53:13.218Z,10.90
2022-10-09T02:55:42.259Z,10.90
2022-10-09T02:58:11.237Z,10.90
2022-10-09T03:00:40.743Z,10.80
2022-10-09T03:03:11.116Z,10.80
2022-10-09T03:05:40.176Z,10.80
2022-10-09T03:08:09.442Z,10.70
2022-10-09T03:10:39.293Z,10.70
2022-10-09T03:13:09.064Z,10.70
2022-10-09T03:15:38.718Z,10.70
2022-10-09T03:18:07.838Z,10.70
2022-10-09T03:20:39.945Z,10.60
2022-10-09T03:23:08.923Z,10.60
2022-10-09T03:25:38.017Z,10.50
2022-10-09T03:28:07.122Z,10.40
2022-10-09T03:30:36.117Z,10.50
2022-10-09T03:33:05.436Z,10.40
2022-10-09T03:35:34.362Z,10.50
2022-10-09T03:38:04.727Z,10.40
2022-10-09T03:40:33.691Z,10.40
2022-10-09T03:43:02.632Z,10.40
2022-10-09T03:45:31.522Z,10.30
2022-10-09T03:48:00.562Z,10.30
2022-10-09T03:50:29.526Z,10.20
2022-10-09T03:52:58.805Z,10.30
2022-10-09T03:55:29.210Z,10.20
2022-10-09T03:57:58.175Z,10.20
2022-10-09T04:00:27.403Z,10.20
2022-10-09T04:02:56.388Z,10.20
2022-10-09T04:05:25.461Z,10.20
2022-10-09T04:07:54.432Z,10.20
2022-10-09T04:10:23.453Z,10.10
2022-10-09T04:12:53.929Z,10.10
2022-10-09T04:15:22.854Z,10.20
2022-10-09T04:17:51.948Z,10.20
2022-10-09T04:20:21.773Z,10.20
2022-10-09T04:22:51.105Z,10.20
2022-10-09T04:25:20.330Z,10.20
2022-10-09T04:27:49.397Z,10.20
2022-10-09T04:30:19.846Z,10.30
2022-10-09T04:32:49.509Z,10.30
2022-10-09T04:35:18.866Z,10.30
2022-10-09T04:37:47.858Z,10.40
2022-10-09T04:40:16.912Z,10.30
2022-10-09T04:42:45.957Z,10.40
2022-10-09T04:45:15.217Z,10.40
2022-10-09T04:47:45.692Z,10.40
2022-10-09T04:50:15.347Z,10.50
2022-10-09T04:52:59.692Z,10.50
2022-10-09T04:55:28.634Z,10.50
2022-10-09T04:57:57.664Z,10.50
2022-10-09T05:00:26.714Z,10.50
2022-10-09T05:02:57.105Z,10.50
2022-10-09T05:05:26.052Z,10.50
2022-10-09T05:07:55.113Z,10.60
2022-10-09T05:10:24.101Z,10.50
2022-10-09T05:12:53.119Z,10.50
2022-10-09T05:15:22.133Z,10.40
2022-10-09T05:17:51.170Z,10.40
2022-10-09T05:20:21.541Z,10.50
2022-10-09T05:22:50.958Z,10.50
2022-10-09T05:25:20.426Z,10.50
2022-10-09T05:27:49.391Z,10.60
2022-10-09T05:30:18.603Z,10.60
2022-10-09T05:32:47.911Z,10.60
2022-10-09T05:35:17.172Z,10.60
2022-10-09T05:37:47.751Z,10.50
2022-10-09T05:40:16.944Z,10.60
2022-10-09T05:42:46.115Z,10.60
2022-10-09T05:45:15.407Z,10.60
2022-10-09T05:47:44.352Z,10.60
2022-10-09T05:50:13.477Z,10.60
2022-10-09T05:52:42.444Z,10.60
2022-10-09T05:55:12.854Z,10.60
2022-10-09T05:57:41.936Z,10.70
2022-10-09T06:00:12.391Z,10.70
2022-10-09T06:02:41.377Z,10.80
2022-10-09T06:05:11.621Z,10.90
2022-10-09T06:07:40.509Z,10.90
2022-10-09T06:10:10.381Z,11.00
2022-10-09T06:12:40.921Z,11.00
2022-10-09T06:15:10.604Z,11.00
2022-10-09T06:17:39.545Z,11.10
2022-10-09T06:20:09.105Z,11.10
2022-10-09T06:22:38.017Z,11.10
2022-10-09T06:25:07.982Z,11.10
2022-10-09T06:27:36.905Z,11.20
2022-10-09T06:30:08.436Z,11.30
2022-10-09T06:32:37.474Z,11.30
2022-10-09T06:35:07.290Z,11.40
2022-10-09T06:37:36.277Z,11.40
2022-10-09T06:40:05.732Z,11.30
2022-10-09T06:42:34.653Z,11.40
2022-10-09T06:45:11.727Z,11.40
2022-10-09T06:47:40.702Z,11.50
2022-10-09T06:50:10.730Z,11.60
2022-10-09T06:52:39.644Z,11.60
2022-10-09T06:55:09.415Z,11.60
2022-10-09T06:57:38.452Z,11.60
2022-10-09T07:00:08.511Z,11.50
2022-10-09T07:02:43.781Z,11.50
2022-10-09T07:05:13.166Z,11.40
2022-10-09T07:07:42.442Z,11.50
2022-10-09T07:10:11.904Z,11.50
2022-10-09T07:12:40.861Z,11.50
2022-10-09T07:15:10.992Z,11.50
2022-10-09T07:17:41.406Z,11.50
2022-10-09T07:20:10.990Z,11.60
2022-10-09T07:22:40.341Z,11.60
2022-10-09T07:25:12.082Z,11.70
2022-10-09T07:27:41.085Z,11.80
2022-10-09T07:30:11.393Z,11.90
2022-10-09T07:32:41.896Z,11.90
2022-10-09T07:35:11.157Z,11.90
2022-10-09T07:37:40.162Z,12.10
2022-10-09T07:40:09.935Z,12.10
2022-10-09T07:42:39.041Z,12.20
2022-10-09T07:45:08.828Z,12.30
2022-10-09T07:47:37.827Z,12.40
2022-10-09T07:50:09.534Z,12.40
2022-10-09T07:52:38.582Z,12.40
2022-10-09T07:55:08.756Z,12.50
2022-10-09T07:57:37.877Z,12.60
2022-10-09T08:00:08.472Z,12.70
2022-10-09T08:02:41.408Z,12.80
2022-10-09T08:05:12.206Z,13.00
2022-10-09T08:07:41.407Z,13.10
2022-10-09T08:10:11.265Z,13.20
2022-10-09T08:12:40.260Z,13.40
2022-10-09T08:15:10.400Z,13.50
2022-10-09T08:17:39.324Z,13.60
2022-10-09T08:20:09.513Z,13.70
2022-10-09T08:22:39.869Z,13.70
2022-10-09T08:25:09.813Z,13.70
2022-10-09T08:27:38.927Z,13.70
2022-10-09T08:30:09.215Z,13.60
2022-10-09T08:32:38.696Z,13.50
2022-10-09T08:35:09.132Z,13.50
2022-10-09T08:37:45.929Z,13.50
2022-10-09T08:40:19.499Z,13.30
2022-10-09T08:42:54.663Z,13.30
2022-10-09T08:45:23.936Z,13.20
2022-10-09T08:47:58.877Z,13.20
2022-10-09T08:50:31.951Z,13.30
2022-10-09T08:53:07.670Z,13.40
2022-10-09T08:55:43.205Z,13.50
2022-10-09T08:58:17.483Z,13.50
2022-10-09T09:00:50.957Z,13.60
2022-10-09T09:03:44.756Z,13.60
2022-10-09T09:06:20.652Z,13.50
2022-10-09T09:09:03.396Z,13.60
2022-10-09T09:11:42.193Z,13.50
2022-10-09T09:14:24.244Z,13.30
2022-10-09T09:17:00.292Z,13.20
2022-10-09T09:19:44.435Z,13.10
2022-10-09T09:22:15.560Z,13.20
2022-10-09T09:24:49.360Z,13.20
2022-10-09T09:27:20.713Z,13.30
2022-10-09T09:29:55.923Z,13.40
2022-10-09T09:32:30.644Z,13.40
2022-10-09T09:35:08.544Z,13.50
2022-10-09T09:37:40.831Z,13.50
2022-10-09T09:40:36.233Z,13.50
2022-10-09T09:43:15.049Z,13.50
2022-10-09T09:45:45.224Z,13.60
2022-10-09T09:48:18.952Z,13.60
2022-10-09T09:51:04.976Z,13.70
2022-10-09T09:53:44.048Z,13.80
2022-10-09T09:56:14.719Z,13.80
2022-10-09T09:58:48.619Z,13.80
2022-10-09T10:01:24.517Z,13.80
2022-10-09T10:03:55.076Z,14.00
2022-10-09T10:06:25.520Z,14.10
2022-10-09T10:09:02.880Z,14.20
2022-10-09T10:11:46.352Z,14.40
2022-10-09T10:14:18.477Z,14.50
2022-10-09T10:16:52.478Z,14.50
2022-10-09T10:19:27.398Z,14.40
2022-10-09T10:22:01.890Z,14.40
2022-10-09T10:24:37.582Z,14.50
2022-10-09T10:27:14.490Z,14.60
2022-10-09T10:29:47.258Z,14.70
2022-10-09T10:32:19.640Z,14.60
2022-10-09T10:34:53.129Z,14.70
2022-10-09T10:37:32.592Z,14.70
2022-10-09T10:40:06.630Z,14.70
2022-10-09T10:42:48.878Z,14.50
2022-10-09T10:45:21.655Z,14.30
2022-10-09T10:47:53.963Z,14.20
2022-10-09T10:50:24.513Z,14.20
2022-10-09T10:53:06.370Z,14.20
2022-10-09T10:55:45.005Z,13.90
2022-10-09T10:58:27.403Z,13.80
2022-10-09T11:01:15.956Z,13.70
2022-10-09T11:04:07.657Z,13.70
2022-10-09T11:06:42.769Z,13.80
2022-10-09T11:09:17.688Z,14.00
2022-10-09T11:11:55.097Z,14.10
2022-10-09T11:14:38.034Z,14.20
2022-10-09T11:17:18.541Z,14.20
2022-10-09T11:20:12.746Z,14.30
2022-10-09T11:22:57.519Z,14.40
2022-10-09T11:25:32.580Z,14.50
2022-10-09T11:28:06.940Z,14.50
2022-10-09T11:30:46.406Z,14.60
2022-10-09T11:33:28.888Z,14.60
2022-10-09T11:36:02.296Z,14.50
2022-10-09T11:38:34.975Z,14.60
2022-10-09T11:41:07.402Z,14.70
2022-10-09T11:43:56.410Z,14.50
2022-10-09T11:46:37.842Z,14.40
2022-10-09T11:49:15.661Z,14.40
2022-10-09T11:51:51.753Z,14.40
2022-10-09T11:54:23.818Z,14.30
2022-10-09T11:56:59.573Z,14.30
2022-10-09T11:59:31.667Z,14.30
2022-10-09T12:02:23.613Z,14.30
2022-10-09T12:04:55.153Z,14.40
2022-10-09T12:07:31.140Z,14.40
2022-10-09T12:10:04.494Z,14.40
2022-10-09T12:12:34.982Z,14.50
2022-10-09T12:15:25.179Z,14.50
2022-10-09T12:17:56.994Z,14.50
2022-10-09T12:20:29.364Z,14.60
2022-10-09T12:23:25.078Z,14.70
2022-10-09T12:25:54.165Z,14.70
2022-10-09T12:28:31.270Z,14.70
2022-10-09T12:31:03.640Z,14.70
2022-10-09T12:33:39.033Z,14.80
2022-10-09T12:36:22.594Z,14.80
2022-10-09T12:38:55.953Z,14.80
2022-10-09T12:41:33.458Z,14.80
2022-10-09T12:44:04.592Z,14.70
2022-10-09T12:46:38.726Z,14.70
2022-10-09T12:49:20.785Z,14.60
2022-10-09T12:51:56.751Z,14.70
2022-10-09T12:54:27.074Z,14.70
2022-10-09T12:56:58.812Z,14.90
2022-10-09T12:59:30.091Z,14.90
2022-10-09T13:02:01.674Z,14.90
2022-10-09T13:04:39.278Z,15.00
2022-10-09T13:07:22.305Z,15.20
2022-10-09T13:09:57.938Z,15.40
2022-10-09T13:12:29.069Z,15.40
2022-10-09T13:14:59.980Z,15.50
2022-10-09T13:17:33.522Z,15.60
2022-10-09T13:20:22.190Z,15.60
2022-10-09T13:22:56.968Z,15.70
2022-10-09T13:25:27.679Z,15.70
2022-10-09T13:27:56.927Z,15.70
2022-10-09T13:30:27.401Z,15.70
2022-10-09T13:32:56.807Z,15.50
2022-10-09T13:35:27.337Z,15.50
2022-10-09T13:37:56.545Z,15.40
2022-10-09T13:40:25.907Z,15.20
2022-10-09T13:42:57.226Z,15.20
2022-10-09T13:45:26.606Z,15.20
2022-10-09T13:47:56.057Z,15.00
2022-10-09T13:50:27.061Z,15.00
2022-10-09T13:52:56.389Z,14.90
2022-10-09T13:55:25.842Z,14.90
2022-10-09T13:57:55.627Z,14.90
2022-10-09T14:00:25.160Z,15.00
2022-10-09T14:02:54.556Z,14.90
2022-10-09T14:05:24.100Z,15.00
2022-10-09T14:07:55.502Z,15.00
2022-10-09T14:10:25.099Z,15.00
2022-10-09T14:12:54.657Z,15.00
2022-10-09T14:15:24.163Z,15.10
2022-10-09T14:17:53.676Z,15.10
2022-10-09T14:20:25.483Z,15.00
2022-10-09T14:22:57.400Z,15.00
2022-10-09T14:25:26.788Z,14.90
2022-10-09T14:27:56.415Z,14.80
2022-10-09T14:30:25.575Z,14.70
2022-10-09T14:32:55.589Z,14.70
2022-10-09T14:35:24.783Z,14.60
2022-10-09T14:37:55.419Z,14.60
2022-10-09T14:40:24.653Z,14.60
2022-10-09T14:42:53.856Z,14.60
2022-10-09T14:45:23.174Z,14.60
2022-10-09T14:47:52.344Z,14.50
2022-10-09T14:50:21.534Z,14.40
2022-10-09T14:52:51.224Z,14.40
2022-10-09T15:01:51.156Z,13.90
2022-10-09T15:14:10.385Z,13.90
2022-10-09T15:16:50.696Z,13.90
2022-10-09T15:19:26.422Z,13.80
2022-10-09T15:22:00.185Z,13.80
2022-10-09T15:24:34.007Z,13.70
2022-10-09T15:27:06.553Z,13.70
2022-10-09T15:29:36.807Z,13.70
2022-10-09T15:32:11.421Z,13.60
2022-10-09T15:34:43.654Z,13.50
2022-10-09T15:37:14.223Z,13.50
2022-10-09T15:39:57.984Z,13.40
2022-10-09T15:42:30.263Z,13.30
2022-10-09T15:44:59.648Z,13.30
2022-10-09T15:47:50.028Z,13.20
2022-10-09T15:50:17.912Z,13.10
2022-10-09T15:52:47.434Z,13.00
2022-10-09T15:55:20.326Z,12.90
2022-10-09T15:57:50.953Z,12.70
2022-10-09T16:00:20.312Z,12.60
2022-10-09T16:02:49.730Z,12.50
2022-10-09T16:05:21.980Z,12.50
2022-10-09T16:07:51.383Z,12.50
2022-10-09T16:10:22.170Z,12.40
2022-10-09T16:12:53.068Z,12.40
2022-10-09T16:15:22.599Z,12.30
2022-10-09T16:17:52.201Z,12.20
2022-10-09T16:20:21.299Z,12.20
2022-10-09T16:22:50.665Z,12.20
2022-10-09T16:25:20.241Z,12.10
2022-10-09T16:27:52.072Z,12.00
2022-10-09T16:30:21.265Z,12.00
2022-10-09T16:32:52.831Z,11.90
2022-10-09T16:35:23.773Z,11.90
2022-10-09T16:37:54.007Z,11.80
2022-10-09T16:40:37.478Z,11.90
2022-10-09T16:43:14.221Z,11.80
2022-10-09T16:45:44.250Z,11.70
2022-10-09T16:48:13.339Z,11.70
2022-10-09T16:50:43.569Z,11.70
2022-10-09T16:53:12.738Z,11.60
2022-10-09T16:55:48.617Z,11.60
2022-10-09T16:58:19.520Z,11.60
2022-10-09T17:00:49.129Z,11.50
2022-10-09T17:03:18.554Z,11.40
2022-10-09T17:05:48.058Z,11.50
2022-10-09T17:08:19.946Z,11.40
2022-10-09T17:10:49.100Z,11.40
2022-10-09T17:13:19.578Z,11.40
2022-10-09T17:15:48.990Z,11.30
2022-10-09T17:18:18.521Z,11.20
2022-10-09T17:20:47.795Z,11.20
2022-10-09T17:23:17.168Z,11.10
2022-10-09T17:25:48.906Z,11.10
2022-10-09T17:28:20.263Z,11.10
2022-10-09T17:30:49.654Z,11.10
2022-10-09T17:33:20.083Z,11.00
2022-10-09T17:35:55.786Z,11.10
2022-10-09T17:38:25.080Z,11.00
2022-10-09T17:40:54.583Z,10.90
2022-10-09T17:43:25.275Z,10.90
2022-10-09T17:45:54.867Z,10.90
2022-10-09T17:48:24.445Z,10.90
2022-10-09T17:50:54.555Z,10.90
2022-10-09T17:53:24.339Z,10.80
2022-10-09T17:55:55.309Z,10.80
2022-10-09T17:58:26.505Z,10.70
2022-10-09T18:00:55.801Z,10.80
2022-10-09T18:03:25.569Z,10.80
2022-10-09T18:05:54.856Z,10.70
2022-10-09T18:08:24.533Z,10.70
2022-10-09T18:11:00.257Z,10.70
2022-10-09T18:13:31.255Z,10.70
2022-10-09T18:16:00.386Z,10.70
2022-10-09T18:18:30.112Z,10.70
2022-10-09T18:21:05.269Z,10.60
2022-10-09T18:23:36.185Z,10.50
2022-10-09T18:26:09.648Z,10.50
2022-10-09T18:28:48.558Z,10.50
2022-10-09T18:31:28.526Z,10.50
2022-10-09T18:33:59.616Z,10.50
2022-10-09T18:36:34.537Z,10.50
2022-10-09T18:39:06.903Z,10.50
2022-10-09T18:41:36.642Z,10.50
2022-10-09T18:44:12.368Z,10.40
2022-10-09T18:46:46.108Z,10.40
2022-10-09T18:49:19.022Z,10.40
2022-10-09T18:51:49.858Z,10.30
2022-10-09T18:54:23.467Z,10.30
2022-10-09T18:56:56.758Z,10.30
2022-10-09T18:59:28.615Z,10.20
2022-10-09T19:01:59.750Z,10.20
2022-10-09T19:04:29.668Z,10.30
2022-10-09T19:06:59.618Z,10.30
2022-10-09T19:09:29.632Z,10.20
2022-10-09T19:11:59.409Z,10.20
2022-10-09T19:14:30.383Z,10.20
2022-10-09T19:17:00.198Z,10.20
2022-10-09T19:19:30.458Z,10.10
2022-10-09T19:22:00.621Z,10.10
2022-10-09T19:24:34.083Z,10.10
2022-10-09T19:27:04.758Z,10.10
2022-10-09T19:29:36.097Z,10.00
2022-10-09T19:32:05.771Z,9.90
2022-10-09T19:34:37.065Z,9.90
2022-10-09T19:37:06.952Z,9.90
2022-10-09T19:39:50.399Z,9.80
2022-10-09T19:42:23.491Z,9.90
2022-10-09T19:44:55.167Z,9.80
2022-10-09T19:47:24.598Z,9.80
2022-10-09T19:49:54.854Z,9.80
2022-10-09T19:52:24.553Z,9.80
2022-10-09T19:54:53.940Z,9.80
2022-10-09T19:57:23.050Z,9.70
2022-10-09T19:59:53.921Z,9.70
2022-10-09T20:02:23.597Z,9.70
2022-10-09T20:04:53.809Z,9.60
2022-10-09T20:07:23.176Z,9.60
2022-10-09T20:09:52.524Z,9.60
2022-10-09T20:12:22.000Z,9.60
2022-10-09T20:14:51.216Z,9.60
2022-10-09T20:17:22.275Z,9.60
2022-10-09T20:19:51.639Z,9.60
2022-10-09T20:22:21.975Z,9.50
2022-10-09T20:24:54.309Z,9.50
2022-10-09T20:27:24.445Z,9.50
2022-10-09T20:29:54.867Z,9.50
2022-10-09T20:32:26.550Z,9.40
2022-10-09T20:34:58.357Z,9.40
2022-10-09T20:37:31.117Z,9.40
2022-10-09T20:40:00.488Z,9.40
2022-10-09T20:42:29.979Z,9.30
2022-10-09T20:44:59.158Z,9.30
2022-10-09T20:47:33.881Z,9.30
2022-10-09T20:50:03.402Z,9.30
2022-10-09T20:52:32.945Z,9.30
2022-10-09T20:55:02.670Z,9.30
2022-10-09T20:57:31.952Z,9.20
2022-10-09T21:00:01.269Z,9.20
2022-10-09T21:02:30.854Z,9.20
2022-10-09T21:05:01.446Z,9.10
2022-10-09T21:07:30.461Z,9.10
2022-10-09T21:09:59.479Z,9.10
2022-10-09T21:12:28.544Z,9.10
2022-10-09T21:14:57.793Z,9.10
2022-10-09T21:17:27.028Z,9.10
2022-10-09T21:19:57.863Z,9.10
2022-10-09T21:22:28.463Z,9.00
2022-10-09T21:24:57.494Z,9.00
2022-10-09T21:27:26.772Z,9.00
2022-10-09T21:29:56.069Z,8.90
2022-10-09T21:32:25.205Z,8.90
2022-10-09T21:34:54.211Z,8.90
2022-10-09T21:37:23.231Z,8.90
2022-10-09T21:39:53.756Z,8.80
2022-10-09T21:42:22.976Z,8.80
2022-10-09T21:44:52.169Z,8.80
2022-10-09T21:47:21.166Z,8.80
2022-10-09T21:49:50.165Z,8.70
2022-10-09T21:52:19.397Z,8.60
2022-10-09T21:54:48.768Z,8.60
2022-10-09T21:57:19.274Z,8.60
2022-10-09T21:59:49.327Z,8.50
2022-10-09T22:02:18.300Z,8.50
2022-10-09T22:04:47.633Z,8.50
2022-10-09T22:07:16.614Z,8.40
2022-10-09T22:09:45.786Z,8.50
2022-10-09T22:12:14.979Z,8.50
2022-10-09T22:14:45.414Z,8.40
2022-10-09T22:17:14.517Z,8.40
2022-10-09T22:19:43.703Z,8.40
2022-10-09T22:22:12.715Z,8.40
2022-10-09T22:24:41.932Z,8.30
2022-10-09T22:27:10.965Z,8.30
2022-10-09T22:29:40.090Z,8.20
2022-10-09T22:32:10.949Z,8.20
2022-10-09T22:34:40.093Z,8.20
2022-10-09T22:37:09.165Z,8.20
2022-10-09T22:39:38.070Z,8.10
2022-10-09T22:42:07.227Z,8.10
2022-10-09T22:44:36.299Z,8.00
2022-10-09T22:47:05.424Z,8.00
2022-10-09T22:49:35.887Z,8.00
2022-10-09T22:52:05.213Z,7.90
2022-10-09T22:54:34.374Z,7.90
2022-10-09T22:57:03.412Z,7.80
2022-10-09T22:59:32.686Z,7.80
2022-10-09T23:02:01.887Z,7.80
2022-10-09T23:04:30.958Z,7.80
2022-10-09T23:07:01.664Z,7.80
2022-10-09T23:09:31.896Z,7.80
2022-10-09T23:12:01.688Z,7.80
2022-10-09T23:14:30.784Z,7.70
2022-10-09T23:16:59.687Z,7.70
2022-10-09T23:19:28.899Z,7.60
2022-10-09T23:21:58.126Z,7.60
2022-10-09T23:24:28.529Z,7.40
2022-10-09T23:26:57.448Z,7.30
2022-10-09T23:29:26.565Z,7.20
2022-10-09T23:31:55.713Z,7.10
2022-10-09T23:34:24.667Z,7.00
2022-10-09T23:36:53.755Z,7.00
2022-10-09T23:39:22.996Z,7.00
2022-10-09T23:41:53.392Z,6.90
2022-10-09T23:44:22.470Z,6.90
2022-10-09T23:46:52.245Z,6.70
2022-10-09T23:49:21.423Z,6.70
2022-10-09T23:51:50.433Z,6.70
2022-10-09T23:54:19.473Z,6.60
2022-10-09T23:56:48.536Z,6.60
2022-10-09T23:59:18.973Z,6.60
